Terminal Aerodrome Forecast
Issued by NWS Charleston, WV

Current Version | Previous Version | Graphics & Text | Print | Product List | Glossary On
Versions: 1 2 3 4 5 6 7 8 9 10 11 12 13 14 15 16 17 18 19 20 21 22 23 24
000
FTUS41 KRLX 191246 CCA
TAFCRW
TAF COR
KCRW 191246Z 1913/2012 29010G22KT P6SM OVC040
      TEMPO 1913/1916 -SHRA BKN020
     FM191800 31009G17KT P6SM BKN050
     FM200500 32005KT P6SM FEW080=

USA.gov is the U.S. government's official web portal to all federal, state and local government web resources and services.